Time;durP1;ratioP1;P1;durP2;ratioP2;P2;SDS_P1;SDS_P2;PMS_P1;PMS_P2;Temp;Humidity;BMP_temperature;BMP_pressure;BME280_temperature;BME280_humidity;BME280_pressure;Samples;Min_cycle;Max_cycle;Signal;HPM_P1;HPM_P2
2022/04/19 00:01:14;;;;;;;0.80;0.50;;;10.00;1.00;;;;;;5119646;28;20547;-56
2022/04/19 00:03:41;;;;;;;0.77;0.53;;;10.00;1.00;;;;;;5119494;28;20472;-57
2022/04/19 00:06:08;;;;;;;0.80;0.40;;;10.00;1.00;;;;;;5119273;28;20961;-57
2022/04/19 00:08:36;;;;;;;0.70;0.50;;;10.10;1.00;;;;;;5119258;28;20539;-56
2022/04/19 00:11:03;;;;;;;2.47;0.60;;;10.10;1.00;;;;;;5119404;28;20567;-55
2022/04/19 00:13:31;;;;;;;0.70;0.40;;;10.10;1.00;;;;;;5118691;28;20459;-57
2022/04/19 00:15:58;;;;;;;1.73;0.50;;;10.10;1.00;;;;;;5117460;28;20459;-55
2022/04/19 00:18:27;;;;;;;0.90;0.50;;;10.00;1.00;;;;;;5117653;28;20441;-57
2022/04/19 00:20:54;;;;;;;1.33;0.50;;;10.00;1.00;;;;;;5117307;28;20456;-54
2022/04/19 00:23:22;;;;;;;0.90;0.50;;;10.00;1.00;;;;;;5117448;28;20448;-56
2022/04/19 00:25:52;;;;;;;1.80;0.50;;;10.00;1.00;;;;;;5118016;28;20542;-57
2022/04/19 00:28:20;;;;;;;0.97;0.60;;;10.00;1.00;;;;;;5118332;28;20451;-57
2022/04/19 00:30:47;;;;;;;2.43;0.50;;;9.90;1.00;;;;;;5118519;28;20583;-57
2022/04/19 00:33:15;;;;;;;0.70;0.40;;;9.90;1.00;;;;;;5118799;28;20441;-56
2022/04/19 00:35:43;;;;;;;1.73;0.60;;;9.90;1.00;;;;;;5118895;28;20452;-56
2022/04/19 00:38:10;;;;;;;0.70;0.50;;;9.90;1.00;;;;;;5117159;28;20536;-56
2022/04/19 00:40:37;;;;;;;0.73;0.53;;;9.90;1.00;;;;;;5118548;28;20910;-57
2022/04/19 00:43:05;;;;;;;0.53;0.37;;;9.80;1.00;;;;;;5118484;28;20465;-56
2022/04/19 00:45:34;;;;;;;0.80;0.50;;;9.80;1.00;;;;;;5117952;28;20495;-55
2022/04/19 00:48:01;;;;;;;1.00;0.50;;;9.70;1.00;;;;;;5118254;28;20448;-57
2022/04/19 00:50:30;;;;;;;0.80;0.47;;;9.70;1.00;;;;;;5116051;28;20543;-57
2022/04/19 00:52:59;;;;;;;0.97;0.50;;;9.70;1.00;;;;;;5114572;28;20547;-55
2022/04/19 00:55:26;;;;;;;1.83;0.50;;;9.70;1.00;;;;;;5115437;28;20476;-55
2022/04/19 00:57:53;;;;;;;0.80;0.60;;;9.70;1.00;;;;;;5115809;28;20906;-55
2022/04/19 01:00:21;;;;;;;0.80;0.40;;;9.80;1.00;;;;;;5114727;28;20732;-55
2022/04/19 01:02:48;;;;;;;0.60;0.40;;;9.80;1.00;;;;;;5116006;28;20713;-56
2022/04/19 01:05:16;;;;;;;0.70;0.50;;;9.70;1.00;;;;;;5116241;28;20459;-55
2022/04/19 01:07:45;;;;;;;2.70;0.50;;;9.60;1.00;;;;;;5116940;28;20816;-57
2022/04/19 01:10:14;;;;;;;1.00;0.50;;;9.50;1.00;;;;;;5117524;28;20452;-56
2022/04/19 01:15:25;;;;;;;0.87;0.60;;;9.50;1.00;;;;;;5117257;28;20555;-56
2022/04/19 01:17:53;;;;;;;0.70;0.50;;;9.40;1.00;;;;;;5117551;28;20488;-55
2022/04/19 01:20:20;;;;;;;0.80;0.50;;;9.30;1.00;;;;;;5118163;28;20453;-56
2022/04/19 01:22:50;;;;;;;0.87;0.50;;;9.30;1.00;;;;;;5118360;28;20491;-57
2022/04/19 01:25:19;;;;;;;0.80;0.50;;;9.30;1.00;;;;;;5117735;28;20495;-56
2022/04/19 01:27:46;;;;;;;0.60;0.40;;;9.30;1.00;;;;;;5117434;28;20444;-55
2022/04/19 01:30:13;;;;;;;0.50;0.40;;;9.40;1.00;;;;;;5117513;28;20720;-58
2022/04/19 01:32:40;;;;;;;1.40;0.50;;;9.40;1.00;;;;;;5116162;28;20922;-55
2022/04/19 01:35:18;;;;;;;0.90;0.47;;;9.40;1.00;;;;;;5117163;28;20914;-56
2022/04/19 01:37:47;;;;;;;0.90;0.50;;;9.50;1.00;;;;;;5117320;28;20502;-56
2022/04/19 01:40:19;;;;;;;0.70;0.60;;;9.40;1.00;;;;;;5116413;28;20473;-56
2022/04/19 01:42:48;;;;;;;1.57;0.50;;;9.50;1.00;;;;;;5116795;28;20460;-57
2022/04/19 01:45:16;;;;;;;1.90;0.50;;;9.30;1.00;;;;;;5116366;28;20479;-55
2022/04/19 01:47:43;;;;;;;0.93;0.57;;;9.30;1.00;;;;;;5115138;28;20449;-54
2022/04/19 01:50:11;;;;;;;0.60;0.40;;;9.20;1.00;;;;;;5115484;28;20456;-55
2022/04/19 01:52:38;;;;;;;1.00;0.57;;;9.20;1.00;;;;;;5114614;28;20927;-54
2022/04/19 01:55:07;;;;;;;1.47;0.50;;;9.10;1.00;;;;;;5115003;28;20488;-56
2022/04/19 01:57:36;;;;;;;0.90;0.50;;;9.10;1.00;;;;;;5115852;28;20451;-55
2022/04/19 02:00:04;;;;;;;0.93;0.60;;;9.20;1.00;;;;;;5114270;28;20474;-56
2022/04/19 02:02:31;;;;;;;1.03;0.50;;;9.10;1.00;;;;;;5115618;28;20524;-54
2022/04/19 02:04:58;;;;;;;1.23;0.50;;;9.10;1.00;;;;;;5115435;28;20859;-56
2022/04/19 02:07:25;;;;;;;0.60;0.40;;;9.10;1.00;;;;;;5115513;28;20475;-55
2022/04/19 02:09:52;;;;;;;0.63;0.40;;;9.10;1.00;;;;;;5116922;28;20499;-54
2022/04/19 02:12:19;;;;;;;0.97;0.40;;;9.10;1.00;;;;;;5116982;28;20575;-55
2022/04/19 02:14:47;;;;;;;0.80;0.40;;;9.10;1.00;;;;;;5116832;28;20456;-56
2022/04/19 02:17:15;;;;;;;0.70;0.50;;;9.10;1.00;;;;;;5116328;28;20455;-57
2022/04/19 02:19:42;;;;;;;1.10;0.60;;;9.10;1.00;;;;;;5116138;28;20468;-55
2022/04/19 02:22:09;;;;;;;1.53;0.60;;;9.00;1.00;;;;;;5115208;28;20483;-53
2022/04/19 02:24:36;;;;;;;1.07;0.50;;;9.00;1.00;;;;;;5115715;28;20852;-52
2022/04/19 02:27:05;;;;;;;1.00;0.60;;;9.00;1.00;;;;;;5115449;28;20539;-56
2022/04/19 02:29:32;;;;;;;0.53;0.30;;;8.90;1.00;;;;;;5115514;28;20529;-56
2022/04/19 02:32:00;;;;;;;0.53;0.40;;;8.90;1.00;;;;;;5116082;28;20576;-55
2022/04/19 02:34:28;;;;;;;0.70;0.50;;;8.90;1.00;;;;;;5116457;28;20806;-56
2022/04/19 02:36:55;;;;;;;0.90;0.40;;;8.80;1.00;;;;;;5116413;28;20449;-57
2022/04/19 02:39:22;;;;;;;0.70;0.50;;;8.80;1.00;;;;;;5116295;28;20514;-57
2022/04/19 02:41:50;;;;;;;0.70;0.40;;;8.80;1.00;;;;;;5116606;28;20484;-58
2022/04/19 02:44:17;;;;;;;0.70;0.40;;;8.90;1.00;;;;;;5115880;28;20449;-55
2022/04/19 02:46:43;;;;;;;0.97;0.40;;;9.00;1.00;;;;;;5116010;28;20928;-58
2022/04/19 02:49:12;;;;;;;1.17;0.60;;;9.00;1.00;;;;;;5116651;28;20804;-58
2022/04/19 02:51:38;;;;;;;1.20;0.67;;;8.90;1.00;;;;;;5116098;28;20511;-53
2022/04/19 02:54:05;;;;;;;0.80;0.50;;;8.90;1.00;;;;;;5115448;28;20876;-57
2022/04/19 02:56:32;;;;;;;1.40;0.50;;;8.80;1.00;;;;;;5115411;28;20543;-55
2022/04/19 02:58:59;;;;;;;0.97;0.50;;;8.80;1.00;;;;;;5115319;28;20509;-54
2022/04/19 03:01:27;;;;;;;0.90;0.50;;;8.80;1.00;;;;;;5114806;28;20543;-57
2022/04/19 03:03:53;;;;;;;0.90;0.53;;;8.80;1.00;;;;;;5115304;28;21025;-55
2022/04/19 03:06:22;;;;;;;0.83;0.50;;;8.80;1.00;;;;;;5115797;28;20452;-58
2022/04/19 03:08:49;;;;;;;0.97;0.50;;;8.80;1.00;;;;;;5115909;28;20456;-56
2022/04/19 03:11:16;;;;;;;0.90;0.43;;;8.70;1.00;;;;;;5116355;28;20495;-55
2022/04/19 03:13:43;;;;;;;1.27;0.57;;;8.60;1.00;;;;;;5116380;28;20523;-56
2022/04/19 03:16:13;;;;;;;2.60;0.50;;;8.60;1.00;;;;;;5116209;28;20505;-56
2022/04/19 03:18:41;;;;;;;0.60;0.40;;;8.60;1.00;;;;;;5115994;28;20509;-56
2022/04/19 03:21:08;;;;;;;1.27;0.57;;;8.70;1.00;;;;;;5115502;28;20448;-56
2022/04/19 03:29:05;;;;;;;0.70;0.50;;;8.60;1.00;;;;;;5115175;28;20550;-58
2022/04/19 03:31:33;;;;;;;1.40;0.60;;;8.60;1.00;;;;;;5115577;28;20865;-57
2022/04/19 03:33:59;;;;;;;0.90;0.50;;;8.50;1.00;;;;;;5115588;28;20578;-56
2022/04/19 03:36:26;;;;;;;1.37;0.60;;;8.50;3.30;;;;;;5115823;28;20459;-56
2022/04/19 03:38:55;;;;;;;0.93;0.43;;;8.40;1.00;;;;;;5114959;28;20826;-53
2022/04/19 03:41:22;;;;;;;1.20;0.50;;;8.30;1.00;;;;;;5116035;28;20931;-57
2022/04/19 03:43:49;;;;;;;0.73;0.50;;;8.30;1.00;;;;;;5116449;28;20461;-55
2022/04/19 03:46:16;;;;;;;1.00;0.50;;;8.20;25.30;;;;;;5115847;28;20951;-57
2022/04/19 03:48:42;;;;;;;1.37;0.60;;;8.20;99.90;;;;;;5115843;28;20959;-57
2022/04/19 03:51:09;;;;;;;0.80;0.50;;;8.20;34.90;;;;;;5115798;28;20456;-56
2022/04/19 03:53:36;;;;;;;2.40;0.50;;;8.20;35.10;;;;;;5114368;28;21002;-57
2022/04/19 03:56:05;;;;;;;0.80;0.50;;;8.20;1.00;;;;;;5117667;28;20509;-53
2022/04/19 03:58:33;;;;;;;0.60;0.47;;;8.20;70.10;;;;;;5118818;28;20444;-54
2022/04/19 04:01:01;;;;;;;0.80;0.40;;;8.20;49.70;;;;;;5118987;28;20459;-57
2022/04/19 04:03:28;;;;;;;0.77;0.50;;;8.20;99.90;;;;;;5118657;28;20451;-57
2022/04/19 04:05:55;;;;;;;1.53;0.53;;;8.30;30.70;;;;;;5117395;28;20525;-52
2022/04/19 04:08:22;;;;;;;1.27;0.50;;;8.30;29.00;;;;;;5116449;28;20473;-55
2022/04/19 04:10:49;;;;;;;0.93;0.50;;;8.30;7.40;;;;;;5116163;28;20547;-57
2022/04/19 04:13:17;;;;;;;3.20;0.70;;;8.30;17.50;;;;;;5116236;28;20477;-56
2022/04/19 04:15:44;;;;;;;1.60;0.60;;;8.40;73.30;;;;;;5116966;28;20480;-57
2022/04/19 04:18:11;;;;;;;1.00;0.53;;;8.30;93.60;;;;;;5117766;28;20457;-53
2022/04/19 04:20:38;;;;;;;0.77;0.60;;;8.30;99.90;;;;;;5118098;28;20499;-55
2022/04/19 04:23:05;;;;;;;1.10;0.70;;;8.20;99.90;;;;;;5118424;28;20535;-56
2022/04/19 04:25:32;;;;;;;0.77;0.60;;;8.10;99.90;;;;;;5117275;28;20445;-58
2022/04/19 04:27:59;;;;;;;0.70;0.50;;;8.10;99.90;;;;;;5117306;28;20471;-58
2022/04/19 04:30:27;;;;;;;2.37;0.60;;;8.10;99.90;;;;;;5117645;28;20450;-57
2022/04/19 04:32:54;;;;;;;0.97;0.50;;;8.20;99.90;;;;;;5117772;28;20855;-57
2022/04/19 04:35:21;;;;;;;0.90;0.60;;;8.10;99.90;;;;;;5117545;28;20448;-57
2022/04/19 04:37:48;;;;;;;0.93;0.50;;;8.10;99.90;;;;;;5118794;28;20444;-58
2022/04/19 04:40:14;;;;;;;1.20;0.70;;;8.10;77.80;;;;;;5119093;28;20470;-56
2022/04/19 04:42:41;;;;;;;1.20;0.70;;;8.10;99.90;;;;;;5118334;28;20448;-54
2022/04/19 04:45:09;;;;;;;2.97;0.60;;;8.10;99.90;;;;;;5118533;28;20468;-57
2022/04/19 04:50:22;;;;;;;1.03;0.60;;;8.10;99.90;;;;;;5118176;28;20559;-53
2022/04/19 04:52:49;;;;;;;1.50;0.60;;;8.20;99.90;;;;;;5118105;28;20516;-56
2022/04/19 04:55:16;;;;;;;1.80;0.53;;;8.20;99.90;;;;;;5117847;28;20444;-56
2022/04/19 04:57:43;;;;;;;0.60;0.50;;;8.00;99.90;;;;;;5117236;28;20489;-56
2022/04/19 05:00:11;;;;;;;1.00;0.70;;;8.00;99.90;;;;;;5116573;28;20829;-56
2022/04/19 05:02:40;;;;;;;1.00;0.50;;;8.10;99.90;;;;;;5115903;28;20809;-53
2022/04/19 05:05:07;;;;;;;0.70;0.40;;;8.20;99.90;;;;;;5116569;28;20860;-55
2022/04/19 05:07:38;;;;;;;1.00;0.60;;;8.50;1.00;;;;;;5116142;28;20872;-50
2022/04/19 05:10:05;;;;;;;0.63;0.40;;;8.70;99.90;;;;;;5116305;28;20441;-53
2022/04/19 05:12:32;;;;;;;1.43;0.57;;;8.90;40.20;;;;;;5116180;28;20501;-51
2022/04/19 05:14:59;;;;;;;0.80;0.50;;;9.10;12.80;;;;;;5116387;28;20527;-54
2022/04/19 05:17:26;;;;;;;1.00;0.47;;;9.10;1.00;;;;;;5116639;28;20930;-52
2022/04/19 05:19:55;;;;;;;2.13;0.67;;;9.10;1.00;;;;;;5117809;28;20531;-53
2022/04/19 05:22:23;;;;;;;1.40;0.70;;;9.10;1.00;;;;;;5116494;28;20914;-49
2022/04/19 05:24:50;;;;;;;1.10;0.60;;;9.20;1.00;;;;;;5117782;28;20538;-55
2022/04/19 05:27:17;;;;;;;1.80;0.70;;;9.30;1.00;;;;;;5117198;28;20488;-51
2022/04/19 05:29:44;;;;;;;1.47;0.60;;;9.40;1.00;;;;;;5115973;28;20440;-54
2022/04/19 05:32:11;;;;;;;0.80;0.57;;;9.50;1.00;;;;;;5116423;28;20485;-54
2022/04/19 05:34:38;;;;;;;1.53;0.70;;;9.40;1.00;;;;;;5117097;28;20971;-52
2022/04/19 05:37:07;;;;;;;2.00;0.77;;;9.40;1.00;;;;;;5117351;28;20480;-53
2022/04/19 05:39:34;;;;;;;1.40;0.80;;;9.40;1.00;;;;;;5117155;28;20448;-53
2022/04/19 05:42:00;;;;;;;2.23;0.70;;;9.60;1.00;;;;;;5116579;28;20531;-55
2022/04/19 05:44:27;;;;;;;1.47;0.60;;;9.60;1.00;;;;;;5116868;28;20449;-51
2022/04/19 05:46:54;;;;;;;0.97;0.53;;;9.50;1.00;;;;;;5116911;28;20937;-52
2022/04/19 05:49:21;;;;;;;3.27;0.70;;;9.80;1.00;;;;;;5115905;28;20836;-53
2022/04/19 05:51:48;;;;;;;1.10;0.60;;;9.90;1.00;;;;;;5116364;28;20475;-52
2022/04/19 05:54:16;;;;;;;1.80;0.73;;;9.60;1.00;;;;;;5117242;28;20499;-54
2022/04/19 05:56:43;;;;;;;1.33;0.80;;;9.40;1.00;;;;;;5116738;28;20453;-52
2022/04/19 05:59:10;;;;;;;1.10;0.70;;;9.10;1.00;;;;;;5115930;28;20872;-52
2022/04/19 06:07:06;;;;;;;2.60;0.70;;;8.50;1.00;;;;;;5114442;28;20466;-50
2022/04/19 06:09:34;;;;;;;1.57;0.70;;;8.60;1.00;;;;;;5115008;28;20535;-52
2022/04/19 06:12:01;;;;;;;1.30;0.80;;;8.70;1.00;;;;;;5115178;28;20563;-55
2022/04/19 06:14:28;;;;;;;1.83;0.80;;;8.70;1.00;;;;;;5115486;28;20879;-54
2022/04/19 06:16:55;;;;;;;1.27;0.63;;;8.70;1.00;;;;;;5113242;28;20456;-48
2022/04/19 06:19:22;;;;;;;1.17;0.73;;;8.80;1.00;;;;;;5114766;28;20554;-52
2022/04/19 06:21:49;;;;;;;1.20;0.60;;;8.90;1.00;;;;;;5114546;28;20449;-53
2022/04/19 06:24:16;;;;;;;2.40;0.90;;;9.20;1.00;;;;;;5115096;28;20936;-51
2022/04/19 06:26:44;;;;;;;1.30;0.70;;;9.30;1.00;;;;;;5113899;28;20449;-52
2022/04/19 06:29:11;;;;;;;1.30;0.90;;;9.30;1.00;;;;;;5094958;28;20438;-51
2022/04/19 06:31:40;;;;;;;1.13;0.77;;;9.30;1.00;;;;;;5103624;28;20445;-53
2022/04/19 06:34:07;;;;;;;3.80;1.00;;;9.30;1.00;;;;;;5112225;28;20483;-53
2022/04/19 06:36:34;;;;;;;1.10;0.60;;;9.30;1.00;;;;;;5103296;28;20891;-52
2022/04/19 06:39:01;;;;;;;1.63;0.77;;;9.50;1.00;;;;;;5110768;28;20495;-52
2022/04/19 06:41:28;;;;;;;2.40;0.80;;;9.80;1.00;;;;;;5107639;28;20498;-52
2022/04/19 06:43:59;;;;;;;3.30;0.97;;;9.90;1.00;;;;;;5113062;28;20955;-54
2022/04/19 06:46:26;;;;;;;1.77;0.97;;;10.00;1.00;;;;;;5113937;28;20473;-52
2022/04/19 06:48:53;;;;;;;1.27;0.93;;;10.10;1.00;;;;;;5113296;28;20451;-54
2022/04/19 06:51:20;;;;;;;1.20;0.70;;;10.30;1.00;;;;;;5111195;28;21019;-53
2022/04/19 06:53:47;;;;;;;1.50;0.80;;;10.60;1.00;;;;;;5113671;28;20479;-50
2022/04/19 06:56:14;;;;;;;1.97;0.77;;;10.70;1.00;;;;;;5113310;28;20448;-54
2022/04/19 06:58:42;;;;;;;2.77;0.80;;;10.80;1.00;;;;;;5111651;28;20544;-54
2022/04/19 07:01:11;;;;;;;1.10;0.70;;;11.10;1.00;;;;;;5114285;28;20617;-53
2022/04/19 07:03:38;;;;;;;2.60;0.87;;;11.40;1.00;;;;;;5113454;28;20433;-55
2022/04/19 07:06:06;;;;;;;1.20;0.70;;;11.60;1.00;;;;;;5109638;28;20887;-53
2022/04/19 07:08:34;;;;;;;1.17;0.77;;;11.60;1.00;;;;;;5112051;28;20445;-52
2022/04/19 07:11:01;;;;;;;1.00;0.80;;;11.70;1.00;;;;;;5111280;28;20448;-52
2022/04/19 07:13:28;;;;;;;2.10;0.80;;;11.70;1.00;;;;;;5111172;28;20476;-53
2022/04/19 07:15:55;;;;;;;1.37;0.70;;;11.60;1.00;;;;;;5110507;28;20960;-51
2022/04/19 07:18:23;;;;;;;2.13;0.70;;;11.50;1.00;;;;;;5112560;28;20546;-53
2022/04/19 07:29:04;;;;;;;3.93;0.97;;;11.60;1.00;;;;;;5114237;28;20447;-54
2022/04/19 07:31:33;;;;;;;1.40;0.90;;;11.70;1.00;;;;;;5118916;28;20617;-55
2022/04/19 07:34:01;;;;;;;1.57;1.00;;;11.70;1.00;;;;;;5117528;28;20476;-51
2022/04/19 07:36:28;;;;;;;1.30;1.00;;;11.70;1.00;;;;;;5112296;28;20457;-51
2022/04/19 07:38:57;;;;;;;1.57;1.00;;;11.70;1.00;;;;;;5117115;28;20803;-54
2022/04/19 07:41:24;;;;;;;5.27;1.20;;;11.70;1.00;;;;;;5117351;28;20449;-54
2022/04/19 07:43:51;;;;;;;2.90;1.10;;;11.80;1.00;;;;;;5114827;28;20523;-54
2022/04/19 07:46:18;;;;;;;1.60;1.10;;;11.90;1.00;;;;;;5110119;28;20553;-52
2022/04/19 07:48:47;;;;;;;1.97;1.00;;;12.00;1.00;;;;;;5116330;28;20531;-52
2022/04/19 07:51:15;;;;;;;2.63;0.97;;;12.10;1.00;;;;;;5116918;28;20449;-54
2022/04/19 07:53:42;;;;;;;2.47;1.10;;;12.20;1.00;;;;;;5116664;28;20927;-50
2022/04/19 07:56:10;;;;;;;3.33;0.90;;;12.50;1.00;;;;;;5117355;28;20540;-51
2022/04/19 07:58:37;;;;;;;3.80;0.80;;;12.60;1.00;;;;;;5115800;28;20535;-48
2022/04/19 08:01:04;;;;;;;2.23;1.20;;;12.90;1.00;;;;;;5097871;28;20537;-52
2022/04/19 08:03:31;;;;;;;5.50;1.10;;;13.20;1.00;;;;;;5097972;28;20461;-52
2022/04/19 08:05:58;;;;;;;3.40;1.00;;;13.40;1.00;;;;;;5097716;28;20540;-55
2022/04/19 08:08:26;;;;;;;2.13;0.90;;;13.40;1.00;;;;;;5097800;28;20941;-54
2022/04/19 08:10:53;;;;;;;1.60;0.80;;;13.40;1.00;;;;;;5109698;28;20444;-54
2022/04/19 08:13:20;;;;;;;7.30;1.00;;;13.30;1.00;;;;;;5112864;28;20515;-55
2022/04/19 08:15:47;;;;;;;5.40;0.73;;;13.20;1.00;;;;;;5116214;28;20531;-52
2022/04/19 08:18:15;;;;;;;1.00;0.70;;;13.30;1.00;;;;;;5115635;28;20449;-50
2022/04/19 08:20:43;;;;;;;1.50;0.80;;;13.40;1.00;;;;;;5115778;28;20801;-51
2022/04/19 08:23:10;;;;;;;1.13;0.80;;;13.50;1.00;;;;;;5113382;28;20555;-53
2022/04/19 08:25:46;;;;;;;2.60;0.80;;;13.40;1.00;;;;;;5117069;28;20445;-52
2022/04/19 08:28:13;;;;;;;1.40;0.80;;;13.30;1.00;;;;;;5117570;28;21039;-52
2022/04/19 08:30:40;;;;;;;1.70;1.00;;;13.50;1.00;;;;;;5117601;28;20534;-55
2022/04/19 08:33:07;;;;;;;3.87;1.00;;;13.60;1.00;;;;;;5116412;28;20472;-53
2022/04/19 08:35:34;;;;;;;8.63;1.00;;;13.80;1.00;;;;;;5116609;28;20899;-55
2022/04/19 08:38:01;;;;;;;1.00;0.80;;;13.90;1.00;;;;;;5115817;28;20484;-53
2022/04/19 08:40:28;;;;;;;1.43;0.80;;;14.10;1.00;;;;;;5115115;28;20527;-51
2022/04/19 08:42:57;;;;;;;1.60;0.93;;;14.20;1.00;;;;;;5115214;28;20831;-55
2022/04/19 08:45:26;;;;;;;2.87;0.80;;;14.40;1.00;;;;;;5116819;28;20571;-53
2022/04/19 08:47:53;;;;;;;1.57;0.80;;;14.60;1.00;;;;;;5114425;28;20895;-52
2022/04/19 08:50:21;;;;;;;1.47;0.80;;;14.70;1.00;;;;;;5116329;28;20494;-55
2022/04/19 08:57:29;;;;;;;1.10;0.67;;;14.70;1.00;;;;;;5115958;28;20475;-53
2022/04/19 08:58:23;;;;;;;2.90;0.90;;;14.90;1.00;;;;;;5110622;28;20894;-51
2022/04/19 09:00:50;;;;;;;4.70;0.73;;;14.80;1.00;;;;;;5115174;28;20444;-55
2022/04/19 09:03:19;;;;;;;2.17;0.80;;;14.90;1.00;;;;;;5113701;28;20448;-53
2022/04/19 09:05:50;;;;;;;1.50;0.90;;;15.00;1.00;;;;;;5114429;28;20948;-56
2022/04/19 09:08:19;;;;;;;1.10;0.60;;;15.30;1.00;;;;;;5115913;28;20448;-53
2022/04/19 09:10:46;;;;;;;1.10;0.70;;;15.40;1.00;;;;;;5115256;28;20471;-50
2022/04/19 09:13:19;;;;;;;1.23;0.80;;;15.60;1.00;;;;;;5117121;28;20810;-55
2022/04/19 09:15:48;;;;;;;1.33;0.80;;;15.60;1.00;;;;;;5116885;28;20756;-58
2022/04/19 09:18:23;;;;;;;1.40;0.70;;;15.60;1.00;;;;;;5116312;28;20480;-59
2022/04/19 09:20:51;;;;;;;1.10;0.70;;;15.80;1.00;;;;;;5116399;28;20450;-58
2022/04/19 09:23:18;;;;;;;2.07;0.80;;;16.00;1.00;;;;;;5116445;28;20452;-59
2022/04/19 09:25:46;;;;;;;1.57;0.77;;;16.10;1.00;;;;;;5116600;28;20498;-59
2022/04/19 09:28:18;;;;;;;1.77;0.60;;;16.20;1.00;;;;;;5115317;28;20876;-59
2022/04/19 09:30:49;;;;;;;1.30;0.73;;;16.20;1.00;;;;;;5115640;28;20746;-59
2022/04/19 09:33:17;;;;;;;0.70;0.47;;;16.30;1.00;;;;;;5115206;28;20899;-59
2022/04/19 09:35:47;;;;;;;1.07;0.70;;;16.30;1.00;;;;;;5115518;28;20533;-59
2022/04/19 09:38:15;;;;;;;2.73;0.80;;;16.20;1.00;;;;;;5116757;28;20499;-59
2022/04/19 09:40:44;;;;;;;1.77;0.70;;;16.40;1.00;;;;;;5116554;28;20535;-60
2022/04/19 09:43:13;;;;;;;0.97;0.60;;;16.50;1.00;;;;;;5115500;28;20459;-60
2022/04/19 09:45:52;;;;;;;1.00;0.50;;;16.60;99.90;;;;;;5113597;28;20748;-59
2022/04/19 09:48:21;;;;;;;2.07;0.50;;;16.70;99.90;;;;;;5114932;28;20999;-58
2022/04/19 09:50:53;;;;;;;0.93;0.50;;;16.60;99.90;;;;;;5113404;28;20477;-58
2022/04/19 09:53:22;;;;;;;0.80;0.47;;;16.60;99.90;;;;;;5112256;28;20839;-60
2022/04/19 09:55:50;;;;;;;0.67;0.47;;;16.50;99.90;;;;;;5112592;28;20632;-57
2022/04/19 09:58:17;;;;;;;0.97;0.50;;;16.70;99.90;;;;;;5113173;28;20811;-58
2022/04/19 10:00:45;;;;;;;1.20;0.60;;;16.90;99.90;;;;;;5113285;28;20540;-57
2022/04/19 10:08:46;;;;;;;0.97;0.47;;;17.60;99.90;;;;;;5112214;28;20490;-58
2022/04/19 10:11:13;;;;;;;1.43;0.50;;;17.80;99.90;;;;;;5115887;28;20479;-58
2022/04/19 10:13:40;;;;;;;1.63;0.60;;;18.00;99.90;;;;;;5113287;28;21030;-58
2022/04/19 10:16:11;;;;;;;1.60;0.70;;;18.40;99.90;;;;;;5110733;28;20933;-59
2022/04/19 10:18:39;;;;;;;1.23;0.63;;;18.70;99.90;;;;;;5111212;28;20191;-58
2022/04/19 10:21:10;;;;;;;1.10;0.50;;;18.80;99.90;;;;;;5108117;28;20483;-59
2022/04/19 10:23:38;;;;;;;1.00;0.50;;;18.70;99.90;;;;;;5112288;28;20471;-60
2022/04/19 10:26:18;;;;;;;1.00;0.50;;;19.00;99.90;;;;;;5106820;28;20556;-58
2022/04/19 10:28:47;;;;;;;3.90;1.00;;;19.30;99.90;;;;;;5106153;28;21041;-58
2022/04/19 10:31:15;;;;;;;1.13;0.63;;;19.50;99.90;;;;;;5098255;28;20533;-58
2022/04/19 10:33:51;;;;;;;0.80;0.50;;;18.80;99.90;;;;;;5110383;28;20478;-60
2022/04/19 10:36:21;;;;;;;1.00;0.60;;;18.80;99.90;;;;;;5112604;28;20539;-59
2022/04/19 10:39:04;;;;;;;0.87;0.60;;;19.10;99.90;;;;;;5112996;28;20445;-58
2022/04/19 10:41:55;;;;;;;0.80;0.50;;;19.40;99.90;;;;;;5106436;28;20460;-58
2022/04/19 10:44:25;;;;;;;0.97;0.67;;;19.40;99.90;;;;;;5102733;28;20511;-59
2022/04/19 10:47:11;;;;;;;1.37;0.60;;;19.60;99.90;;;;;;5109613;28;20518;-58
2022/04/19 10:49:59;;;;;;;1.07;0.60;;;19.60;99.90;;;;;;5104421;28;20895;-58
2022/04/19 10:52:48;;;;;;;0.97;0.60;;;20.00;99.90;;;;;;5098790;28;22020;-59
2022/04/19 10:55:26;;;;;;;1.13;0.63;;;20.20;99.90;;;;;;5098690;28;20479;-58
2022/04/19 10:58:09;;;;;;;1.10;0.60;;;20.10;99.90;;;;;;5106621;28;20460;-58
2022/04/19 11:00:55;;;;;;;1.00;0.60;;;20.40;99.90;;;;;;5098147;28;20526;-58
2022/04/19 11:03:37;;;;;;;1.87;0.80;;;20.70;99.90;;;;;;5087314;28;20468;-59
2022/04/19 11:06:09;;;;;;;1.63;0.70;;;20.30;99.90;;;;;;5096419;28;20930;-59
2022/04/19 11:08:37;;;;;;;0.77;0.53;;;20.40;99.90;;;;;;5108858;28;20457;-59
2022/04/19 11:11:26;;;;;;;1.10;0.60;;;20.60;99.90;;;;;;5113278;28;20513;-60
2022/04/19 11:14:34;;;;;;;1.07;0.60;;;20.80;99.90;;;;;;5099350;28;20485;-59
2022/04/19 11:17:23;;;;;;;0.90;0.57;;;20.70;99.90;;;;;;5101803;28;20840;-59
2022/04/19 11:19:54;;;;;;;1.10;0.70;;;20.90;99.90;;;;;;5111252;28;20983;-60
2022/04/19 11:22:43;;;;;;;0.80;0.53;;;20.90;99.90;;;;;;5104361;28;20833;-61
2022/04/19 11:25:11;;;;;;;1.73;0.70;;;20.90;99.90;;;;;;5112659;28;20967;-60
2022/04/19 11:28:24;;;;;;;1.50;0.70;;;20.70;99.90;;;;;;5106008;28;20984;-59
2022/04/19 11:31:09;;;;;;;1.63;0.60;;;20.30;99.90;;;;;;5048239;28;20543;-60
2022/04/19 11:33:36;;;;;;;0.80;0.60;;;20.30;99.90;;;;;;5116605;28;20544;-60
2022/04/19 11:36:05;;;;;;;0.83;0.50;;;20.30;99.90;;;;;;5115894;28;20503;-59
2022/04/19 11:38:35;;;;;;;1.07;0.60;;;20.20;99.90;;;;;;5118397;28;20476;-59
2022/04/19 11:46:46;;;;;;;1.10;0.60;;;20.20;99.90;;;;;;5115789;28;20522;-60
2022/04/19 11:49:26;;;;;;;1.20;0.60;;;20.10;99.90;;;;;;5117274;28;20875;-60
2022/04/19 11:51:54;;;;;;;1.33;0.70;;;20.40;99.90;;;;;;5115580;28;20460;-61
2022/04/19 11:54:24;;;;;;;0.77;0.47;;;20.90;99.90;;;;;;5113194;28;20511;-61
2022/04/19 11:56:52;;;;;;;2.40;0.70;;;21.10;99.90;;;;;;5114714;28;20495;-60
2022/04/19 11:59:24;;;;;;;1.10;0.60;;;21.20;99.90;;;;;;5115411;28;20449;-60
2022/04/19 12:01:52;;;;;;;2.63;0.70;;;20.80;99.90;;;;;;5108520;28;20517;-60
2022/04/19 12:04:20;;;;;;;1.10;0.57;;;21.00;99.90;;;;;;5113016;28;20547;-60
2022/04/19 12:06:49;;;;;;;1.13;0.60;;;21.10;99.90;;;;;;5112813;28;20487;-60
2022/04/19 12:09:17;;;;;;;1.20;0.57;;;21.10;99.90;;;;;;5114620;28;20547;-59
2022/04/19 12:11:47;;;;;;;1.57;0.73;;;21.30;99.90;;;;;;5115022;28;20452;-58
2022/04/19 12:14:24;;;;;;;1.10;0.70;;;21.10;99.90;;;;;;5109974;28;20476;-58
2022/04/19 12:17:01;;;;;;;1.00;0.70;;;21.40;99.90;;;;;;5113255;28;20487;-58
2022/04/19 12:19:38;;;;;;;1.30;0.70;;;21.30;99.90;;;;;;5111484;27;20467;-59
2022/04/19 12:22:18;;;;;;;1.47;0.80;;;21.30;99.90;;;;;;5111302;28;20464;-59
2022/04/19 12:24:46;;;;;;;2.50;0.80;;;21.00;99.90;;;;;;5110408;27;20829;-59
2022/04/19 12:27:24;;;;;;;1.57;0.60;;;21.20;99.90;;;;;;5114958;28;20517;-59
2022/04/19 12:29:59;;;;;;;1.20;0.67;;;21.40;99.90;;;;;;5113847;28;20460;-58
2022/04/19 12:32:27;;;;;;;1.20;0.60;;;21.50;99.90;;;;;;5116731;28;20489;-57
2022/04/19 12:35:07;;;;;;;1.00;0.60;;;21.30;99.90;;;;;;5112789;28;20946;-58
2022/04/19 12:37:34;;;;;;;1.37;0.80;;;21.20;99.90;;;;;;5112715;28;20567;-59
2022/04/19 12:40:02;;;;;;;2.40;0.63;;;21.30;99.90;;;;;;5111140;28;20859;-56
2022/04/19 12:42:30;;;;;;;0.93;0.67;;;21.10;99.90;;;;;;5112008;28;20915;-58
2022/04/19 12:45:06;;;;;;;2.10;0.67;;;20.70;99.90;;;;;;5112115;28;20492;-56
2022/04/19 12:47:34;;;;;;;1.00;0.60;;;20.70;99.90;;;;;;5114533;28;20468;-56
2022/04/19 12:50:11;;;;;;;1.40;0.73;;;21.30;99.90;;;;;;5110015;27;20460;-57
2022/04/19 12:52:39;;;;;;;0.97;0.67;;;21.40;99.90;;;;;;5115342;28;20459;-54
2022/04/19 12:55:09;;;;;;;1.23;0.70;;;21.40;99.90;;;;;;5114391;28;20877;-57
2022/04/19 12:57:42;;;;;;;1.17;0.70;;;21.60;99.90;;;;;;5108237;28;20900;-57
2022/04/19 13:00:11;;;;;;;1.07;0.73;;;21.60;99.90;;;;;;5103842;28;21543;-62
2022/04/19 13:02:38;;;;;;;1.10;0.60;;;21.70;99.90;;;;;;5097332;28;20485;-59
2022/04/19 13:05:06;;;;;;;2.53;0.87;;;21.50;99.90;;;;;;5108852;28;20503;-59
2022/04/19 13:13:05;;;;;;;1.10;0.70;;;21.70;99.90;;;;;;5069683;28;20436;-59
2022/04/19 13:15:33;;;;;;;0.90;0.53;;;21.40;99.90;;;;;;5115174;28;20860;-59
2022/04/19 13:18:00;;;;;;;1.03;0.63;;;21.60;99.90;;;;;;5116419;28;20856;-60
2022/04/19 13:20:28;;;;;;;1.10;0.80;;;21.60;99.90;;;;;;5113434;28;20456;-59
2022/04/19 13:22:55;;;;;;;1.33;0.70;;;21.60;99.90;;;;;;5116136;28;20449;-60
2022/04/19 13:25:22;;;;;;;1.30;0.67;;;20.90;99.90;;;;;;5112771;28;20615;-59
2022/04/19 13:27:50;;;;;;;1.10;0.60;;;20.60;99.90;;;;;;5112695;28;20510;-60
2022/04/19 13:30:19;;;;;;;0.90;0.60;;;20.50;99.90;;;;;;5113586;28;20460;-60
2022/04/19 13:32:46;;;;;;;1.10;0.60;;;20.60;99.90;;;;;;5115534;28;20453;-60
2022/04/19 13:35:13;;;;;;;1.00;0.60;;;20.60;99.90;;;;;;5110687;28;20575;-60
2022/04/19 13:40:26;;;;;;;1.10;0.70;;;20.80;99.90;;;;;;5103291;28;20735;-59
2022/04/19 13:42:53;;;;;;;0.70;0.50;;;21.00;99.90;;;;;;5111346;28;20953;-59
2022/04/19 13:45:21;;;;;;;0.97;0.70;;;21.10;99.90;;;;;;5112189;28;21101;-59
2022/04/19 13:47:48;;;;;;;1.10;0.50;;;21.20;99.90;;;;;;5114765;28;20441;-59
2022/04/19 13:50:15;;;;;;;0.90;0.60;;;20.70;99.90;;;;;;5112625;28;20448;-61
2022/04/19 13:52:42;;;;;;;0.90;0.60;;;20.60;99.90;;;;;;5114101;28;20476;-58
2022/04/19 13:55:15;;;;;;;0.80;0.60;;;20.40;99.90;;;;;;5113999;28;20928;-59